NDF38 LHBP-LRSB
Flight info
| Callsign | NDF38 |
|---|---|
| Flight time | 0h 40m |
| Altitude | 31000 |
| Route | VETIK2B VETIK DCT BUDOP DCT IBINU IBINU2S |
| Aircraft | A320/M-SDE3FGHIRWY/LB1 |
Departure
| Time | 2026-05-04 13:42 |
|---|---|
| Airport | Budapest Liszt Ferenc International Airport (LHBP) |
Arrival
| Time | 2026-05-04 14:22 |
|---|---|
| Airport | Sibiu International Airport (LRSB) |
| Time | Latitude | Longitude | Altitude | Speed | Heading |
|---|---|---|---|---|---|
| 2026-05-04 12:56 | 47.43413 | 19.26132 | 458 ft | 0 kts | 132° |
| 2026-05-04 13:31 | 47.43426 | 19.26110 | 454 ft | 4 kts | 129° |
| 2026-05-04 13:32 | 47.43442 | 19.26078 | 454 ft | 4 kts | 120° |
| 2026-05-04 13:32 | 47.43453 | 19.26043 | 457 ft | 4 kts | 96° |
| 2026-05-04 13:32 | 47.43450 | 19.26013 | 457 ft | 2 kts | 42° |
| 2026-05-04 13:32 | 47.43446 | 19.26008 | 457 ft | 0 kts | 42° |
| 2026-05-04 13:35 | 47.43449 | 19.26013 | 457 ft | 2 kts | 42° |
| 2026-05-04 13:36 | 47.43464 | 19.26033 | 454 ft | 4 kts | 42° |
| 2026-05-04 13:36 | 47.43490 | 19.26068 | 457 ft | 6 kts | 42° |
| 2026-05-04 13:36 | 47.43526 | 19.26116 | 457 ft | 8 kts | 42° |
| 2026-05-04 13:36 | 47.43572 | 19.26178 | 457 ft | 10 kts | 42° |
| 2026-05-04 13:37 | 47.43627 | 19.26251 | 457 ft | 11 kts | 42° |
| 2026-05-04 13:37 | 47.43689 | 19.26335 | 456 ft | 12 kts | 42° |
| 2026-05-04 13:37 | 47.43763 | 19.26410 | 458 ft | 14 kts | 11° |
| 2026-05-04 13:37 | 47.43840 | 19.26334 | 458 ft | 15 kts | 312° |
| 2026-05-04 13:38 | 47.43914 | 19.26216 | 458 ft | 17 kts | 313° |
| 2026-05-04 13:38 | 47.43996 | 19.26082 | 458 ft | 18 kts | 312° |
| 2026-05-04 13:38 | 47.44086 | 19.25937 | 458 ft | 20 kts | 313° |
| 2026-05-04 13:38 | 47.44186 | 19.25776 | 458 ft | 22 kts | 312° |
| 2026-05-04 13:39 | 47.44288 | 19.25608 | 458 ft | 21 kts | 314° |
| 2026-05-04 13:39 | 47.44425 | 19.25569 | 460 ft | 21 kts | 18° |
| 2026-05-04 13:39 | 47.44506 | 19.25695 | 474 ft | 12 kts | 79° |
| 2026-05-04 13:39 | 47.44502 | 19.25806 | 476 ft | 12 kts | 108° |
| 2026-05-04 13:40 | 47.44463 | 19.25888 | 474 ft | 0 kts | 132° |
| 2026-05-04 13:40 | 47.44458 | 19.25897 | 474 ft | 0 kts | 132° |
| 2026-05-04 13:40 | 47.44455 | 19.25902 | 473 ft | 2 kts | 132° |
| 2026-05-04 13:40 | 47.44323 | 19.26112 | 474 ft | 63 kts | 132° |
| 2026-05-04 13:41 | 47.43882 | 19.26823 | 472 ft | 121 kts | 132° |
| 2026-05-04 13:41 | 47.43215 | 19.27912 | 466 ft | 164 kts | 130° |
| 2026-05-04 13:41 | 47.42419 | 19.29254 | 774 ft | 181 kts | 135° |
| 2026-05-04 13:42 | 47.40767 | 19.32385 | 2015 ft | 201 kts | 124° |
| 2026-05-04 13:42 | 47.40068 | 19.34313 | 2360 ft | 225 kts | 120° |
| 2026-05-04 13:42 | 47.39344 | 19.36446 | 2949 ft | 237 kts | 119° |
| 2026-05-04 13:42 | 47.38596 | 19.38639 | 3764 ft | 242 kts | 118° |
| 2026-05-04 13:43 | 47.38212 | 19.41134 | 4314 ft | 268 kts | 86° |
| 2026-05-04 13:43 | 47.38901 | 19.43731 | 5122 ft | 282 kts | 56° |
| 2026-05-04 13:43 | 47.40245 | 19.45867 | 5996 ft | 287 kts | 41° |
| 2026-05-04 13:43 | 47.41790 | 19.47757 | 6922 ft | 289 kts | 38° |
| 2026-05-04 13:44 | 47.43379 | 19.49624 | 7729 ft | 294 kts | 39° |
| 2026-05-04 13:44 | 47.44957 | 19.51574 | 8566 ft | 297 kts | 42° |
| 2026-05-04 13:44 | 47.46495 | 19.53611 | 9471 ft | 298 kts | 43° |
| 2026-05-04 13:44 | 47.48009 | 19.55731 | 10230 ft | 304 kts | 45° |
| 2026-05-04 13:45 | 47.49571 | 19.58005 | 10466 ft | 327 kts | 46° |
| 2026-05-04 13:45 | 47.51228 | 19.60477 | 10639 ft | 350 kts | 46° |
| 2026-05-04 13:45 | 47.52966 | 19.63092 | 11067 ft | 361 kts | 46° |
| 2026-05-04 13:45 | 47.54664 | 19.65786 | 11725 ft | 363 kts | 54° |
| 2026-05-04 13:46 | 47.55894 | 19.69040 | 12385 ft | 364 kts | 71° |
| 2026-05-04 13:46 | 47.56404 | 19.72703 | 13062 ft | 365 kts | 89° |
| 2026-05-04 13:46 | 47.56148 | 19.76435 | 13720 ft | 367 kts | 106° |
| 2026-05-04 13:46 | 47.55153 | 19.79902 | 14336 ft | 368 kts | 122° |
| 2026-05-04 13:47 | 47.53731 | 19.83065 | 14921 ft | 370 kts | 124° |
| 2026-05-04 13:47 | 47.52280 | 19.86235 | 15461 ft | 374 kts | 124° |
| 2026-05-04 13:47 | 47.50815 | 19.89430 | 16026 ft | 377 kts | 124° |
| 2026-05-04 13:47 | 47.49335 | 19.92653 | 16579 ft | 380 kts | 124° |
| 2026-05-04 13:48 | 47.47866 | 19.95856 | 17137 ft | 383 kts | 124° |
| 2026-05-04 13:48 | 47.46368 | 19.99125 | 17738 ft | 385 kts | 123° |
| 2026-05-04 13:48 | 47.44859 | 20.02423 | 18316 ft | 388 kts | 123° |
| 2026-05-04 13:48 | 47.43340 | 20.05741 | 18808 ft | 392 kts | 123° |
| 2026-05-04 13:49 | 47.41804 | 20.09092 | 19283 ft | 396 kts | 123° |
| 2026-05-04 13:49 | 47.40252 | 20.12472 | 19763 ft | 400 kts | 123° |
| 2026-05-04 13:49 | 47.38683 | 20.15885 | 20251 ft | 404 kts | 123° |
| 2026-05-04 13:49 | 47.37096 | 20.19327 | 20703 ft | 408 kts | 123° |
| 2026-05-04 13:50 | 47.35489 | 20.22803 | 21149 ft | 411 kts | 123° |
| 2026-05-04 13:50 | 47.33833 | 20.26257 | 21592 ft | 415 kts | 124° |
| 2026-05-04 13:50 | 47.32095 | 20.29692 | 21997 ft | 419 kts | 126° |
| 2026-05-04 13:50 | 47.30310 | 20.33105 | 22442 ft | 422 kts | 126° |
| 2026-05-04 13:51 | 47.28497 | 20.36519 | 22929 ft | 424 kts | 127° |
| 2026-05-04 13:51 | 47.26674 | 20.39954 | 23350 ft | 427 kts | 127° |
| 2026-05-04 13:51 | 47.24850 | 20.43423 | 23771 ft | 430 kts | 126° |
| 2026-05-04 13:51 | 47.23048 | 20.46875 | 24118 ft | 433 kts | 126° |
| 2026-05-04 13:52 | 47.19382 | 20.53957 | 24834 ft | 437 kts | 126° |
| 2026-05-04 13:52 | 47.17535 | 20.57526 | 25178 ft | 440 kts | 126° |
| 2026-05-04 13:52 | 47.15677 | 20.61102 | 25526 ft | 442 kts | 126° |
| 2026-05-04 13:53 | 47.13803 | 20.64692 | 25870 ft | 444 kts | 126° |
| 2026-05-04 13:53 | 47.11915 | 20.68304 | 26224 ft | 447 kts | 126° |
| 2026-05-04 13:53 | 47.10019 | 20.71934 | 26588 ft | 449 kts | 126° |
| 2026-05-04 13:54 | 47.06187 | 20.79244 | 27285 ft | 454 kts | 126° |
| 2026-05-04 13:54 | 47.04257 | 20.82916 | 27618 ft | 457 kts | 126° |
| 2026-05-04 13:54 | 47.00380 | 20.90277 | 28274 ft | 461 kts | 126° |
| 2026-05-04 13:55 | 46.98419 | 20.93993 | 28740 ft | 461 kts | 126° |
| 2026-05-04 13:55 | 46.94509 | 21.01393 | 29702 ft | 459 kts | 126° |
| 2026-05-04 13:55 | 46.92556 | 21.05082 | 30171 ft | 458 kts | 126° |
| 2026-05-04 13:56 | 46.90605 | 21.08768 | 30579 ft | 458 kts | 126° |
| 2026-05-04 13:56 | 46.88650 | 21.12454 | 30955 ft | 459 kts | 126° |
| 2026-05-04 13:56 | 46.84713 | 21.19851 | 31098 ft | 465 kts | 126° |
| 2026-05-04 13:57 | 46.82725 | 21.23577 | 31094 ft | 466 kts | 126° |
| 2026-05-04 13:58 | 46.74798 | 21.38416 | 31101 ft | 465 kts | 126° |
| 2026-05-04 13:58 | 46.68835 | 21.49563 | 31100 ft | 464 kts | 122° |
| 2026-05-04 13:59 | 46.65451 | 21.57531 | 31109 ft | 462 kts | 118° |
| 2026-05-04 14:00 | 46.60430 | 21.69509 | 31105 ft | 462 kts | 119° |
| 2026-05-04 14:00 | 46.55414 | 21.81399 | 31106 ft | 462 kts | 119° |
| 2026-05-04 14:01 | 46.52049 | 21.89341 | 31120 ft | 462 kts | 119° |
| 2026-05-04 14:02 | 46.46988 | 22.01217 | 31117 ft | 461 kts | 119° |
| 2026-05-04 14:02 | 46.43612 | 22.09124 | 31113 ft | 461 kts | 119° |
| 2026-05-04 14:03 | 46.40241 | 22.17017 | 31110 ft | 461 kts | 119° |
| 2026-05-04 14:03 | 46.36882 | 22.24848 | 31115 ft | 460 kts | 119° |
| 2026-05-04 14:04 | 46.31815 | 22.36620 | 31113 ft | 459 kts | 119° |
| 2026-05-04 14:04 | 46.28437 | 22.44453 | 31110 ft | 459 kts | 119° |
| 2026-05-04 14:05 | 46.23356 | 22.56163 | 31116 ft | 458 kts | 120° |
| 2026-05-04 14:06 | 46.19992 | 22.63899 | 31109 ft | 458 kts | 120° |
| 2026-05-04 14:06 | 46.16609 | 22.71669 | 31101 ft | 457 kts | 120° |
| 2026-05-04 14:07 | 46.13225 | 22.79406 | 30896 ft | 454 kts | 120° |
| 2026-05-04 14:07 | 46.11543 | 22.83239 | 29287 ft | 455 kts | 120° |
| 2026-05-04 14:07 | 46.09825 | 22.87153 | 27143 ft | 468 kts | 120° |
| 2026-05-04 14:07 | 46.08086 | 22.91108 | 25959 ft | 462 kts | 120° |
| 2026-05-04 14:08 | 46.06388 | 22.94955 | 25659 ft | 448 kts | 120° |
| 2026-05-04 14:08 | 46.04748 | 22.98664 | 24991 ft | 444 kts | 120° |
| 2026-05-04 14:08 | 46.03095 | 23.02402 | 24319 ft | 441 kts | 120° |
| 2026-05-04 14:08 | 46.01454 | 23.06115 | 23651 ft | 438 kts | 120° |
| 2026-05-04 14:09 | 45.98214 | 23.13440 | 22245 ft | 428 kts | 120° |
| 2026-05-04 14:09 | 45.96624 | 23.17022 | 21610 ft | 423 kts | 120° |
| 2026-05-04 14:10 | 45.93714 | 23.24107 | 21135 ft | 405 kts | 107° |
| 2026-05-04 14:10 | 45.93039 | 23.28015 | 20874 ft | 403 kts | 98° |
| 2026-05-04 14:10 | 45.92545 | 23.31969 | 20620 ft | 402 kts | 97° |
| 2026-05-04 14:10 | 45.92098 | 23.35927 | 20370 ft | 400 kts | 96° |
| 2026-05-04 14:11 | 45.91694 | 23.39818 | 20122 ft | 399 kts | 95° |
| 2026-05-04 14:11 | 45.90909 | 23.47663 | 19633 ft | 396 kts | 95° |
| 2026-05-04 14:11 | 45.90512 | 23.51563 | 19385 ft | 394 kts | 95° |
| 2026-05-04 14:12 | 45.90108 | 23.55450 | 19157 ft | 393 kts | 95° |
| 2026-05-04 14:12 | 45.89697 | 23.59326 | 18917 ft | 392 kts | 96° |
| 2026-05-04 14:12 | 45.89146 | 23.67061 | 17799 ft | 392 kts | 89° |
| 2026-05-04 14:13 | 45.89086 | 23.71025 | 16533 ft | 402 kts | 89° |
| 2026-05-04 14:13 | 45.89044 | 23.75038 | 15652 ft | 401 kts | 89° |
| 2026-05-04 14:13 | 45.88996 | 23.79018 | 14930 ft | 396 kts | 89° |
| 2026-05-04 14:13 | 45.88943 | 23.82945 | 14259 ft | 391 kts | 89° |
| 2026-05-04 14:14 | 45.88889 | 23.86820 | 13583 ft | 387 kts | 89° |
| 2026-05-04 14:14 | 45.88781 | 23.94420 | 12017 ft | 381 kts | 89° |
| 2026-05-04 14:14 | 45.88725 | 23.98231 | 11103 ft | 382 kts | 90° |
| 2026-05-04 14:15 | 45.88607 | 24.05855 | 9452 ft | 381 kts | 90° |
| 2026-05-04 14:15 | 45.88488 | 24.13307 | 8541 ft | 357 kts | 90° |
| 2026-05-04 14:16 | 45.88370 | 24.20114 | 8192 ft | 335 kts | 90° |
| 2026-05-04 14:16 | 45.88316 | 24.23459 | 7550 ft | 336 kts | 89° |
| 2026-05-04 14:17 | 45.88127 | 24.30095 | 6888 ft | 330 kts | 99° |
| 2026-05-04 14:17 | 45.87176 | 24.33017 | 6748 ft | 322 kts | 129° |
| 2026-05-04 14:17 | 45.83428 | 24.35275 | 6498 ft | 282 kts | 179° |
| 2026-05-04 14:18 | 45.81532 | 24.35140 | 6118 ft | 274 kts | 187° |
| 2026-05-04 14:18 | 45.78579 | 24.32073 | 4737 ft | 274 kts | 249° |
| 2026-05-04 14:19 | 45.78268 | 24.26817 | 3729 ft | 253 kts | 274° |
| 2026-05-04 14:19 | 45.78313 | 24.24408 | 3409 ft | 232 kts | 275° |
| 2026-05-04 14:19 | 45.78352 | 24.22203 | 3128 ft | 213 kts | 275° |
| 2026-05-04 14:19 | 45.78388 | 24.20159 | 2876 ft | 195 kts | 275° |
| 2026-05-04 14:20 | 45.78420 | 24.18318 | 2622 ft | 174 kts | 274° |
| 2026-05-04 14:20 | 45.78447 | 24.16707 | 2403 ft | 152 kts | 275° |
| 2026-05-04 14:20 | 45.78473 | 24.15249 | 2192 ft | 144 kts | 272° |
| 2026-05-04 14:21 | 45.78525 | 24.12357 | 1793 ft | 144 kts | 273° |
| 2026-05-04 14:21 | 45.78549 | 24.10943 | 1604 ft | 140 kts | 272° |
| 2026-05-04 14:21 | 45.78586 | 24.09566 | 1500 ft | 137 kts | 261° |
| 2026-05-04 14:21 | 45.78600 | 24.08202 | 1501 ft | 130 kts | 256° |
| 2026-05-04 14:22 | 45.78598 | 24.07269 | 1521 ft | 51 kts | 274° |
| 2026-05-04 14:22 | 45.78628 | 24.06980 | 1524 ft | 16 kts | 269° |
| 2026-05-04 14:22 | 45.78611 | 24.06960 | 1520 ft | 3 kts | 128° |
| 2026-05-04 14:22 | 45.78609 | 24.07046 | 1521 ft | 14 kts | 89° |
| 2026-05-04 14:23 | 45.78592 | 24.07753 | 1509 ft | 52 kts | 90° |
| 2026-05-04 14:23 | 45.78589 | 24.08187 | 1498 ft | 22 kts | 97° |
| 2026-05-04 14:23 | 45.78613 | 24.08382 | 1481 ft | 20 kts | 39° |
| 2026-05-04 14:24 | 45.78742 | 24.08406 | 1473 ft | 15 kts | 0° |
| 2026-05-04 14:24 | 45.78807 | 24.08479 | 1469 ft | 14 kts | 113° |
| 2026-05-04 14:24 | 45.78816 | 24.08609 | 1468 ft | 17 kts | 90° |
| 2026-05-04 14:24 | 45.78814 | 24.08810 | 1461 ft | 23 kts | 92° |
| 2026-05-04 14:25 | 45.78812 | 24.09046 | 1460 ft | 23 kts | 91° |
| 2026-05-04 14:25 | 45.78806 | 24.09382 | 1460 ft | 17 kts | 91° |
| 2026-05-04 14:25 | 45.78803 | 24.09514 | 1460 ft | 11 kts | 95° |
| 2026-05-04 14:26 | 45.78797 | 24.09608 | 1460 ft | 9 kts | 94° |
| 2026-05-04 14:26 | 45.78829 | 24.09658 | 1460 ft | 6 kts | 2° |
| 2026-05-04 14:26 | 45.78843 | 24.09659 | 1460 ft | 0 kts | 1° |
| 2026-05-04 14:26 | 45.78844 | 24.09659 | 1460 ft | 0 kts | 6° |
| 2026-05-04 14:27 | 45.78846 | 24.09658 | 1460 ft | 0 kts | 353° |